Česky Dansk Deutsch English Español Suomi Français Magyar Italiano Nederlands norsk Polski Português svenska Türkçe

 

Weather

St-Nazaire (France)

04:30, 20 August 2016 (GMT)

NWNNE
WE
SWSSE
Home            
St-Nazaire Nantes Rennes La Roche-Sur-Yon Lann Bihoue Angers Dinard Saint-Brieuc La Rochelle Quimper Niort Lannion / Servel Morlaix / Ploujean Le Mans Landivisiau Lanveoc Poulmic Poitiers Brest Jersey Airport Alencon Tours Cognac Guernsey Airport

To put a weather button on your web site or blog, copy the code below and paste it into your page . The first box contains HTML code, the second UBB code.


Add to Google

Details

Wind speed:3 bf, 8 kn, 4.1 m/s, 9.2 miles/h, 14.8 km/h
Wind direction:WSW, 240°
Visibility:Greater than 10000 m, 10 km, 32800 ft, 6.2 miles
Clouds:A few clouds at 3100 ft, 945 m
Scattered clouds at 7400 ft, 2256 m
Broken clouds at 8800 ft, 2682 m
Temperature:17°C, 63°F
Dew-point:13°C, 55°F
Atmospheric pressure:1012 hPa, 759.1 mmHg, 29.88 inHg, 0.999 atm
Relative humidity:77.3 %
METAR:LFRZ 200430Z AUTO 24008KT 9999 FEW031 SCT074 BKN088 17/13 Q1012 NOSIG

Shortcuts

An up-to-date overview of weather conditions all over the world. Add locations with the plus (+) sign. These shortcuts can be added to Google.

Lid van de Technetium groep

website free tracking
StatCounter NetStat W3C Validator

07-12-2022 09:41:05
astro.technetium.be money.technetium.be phote.technetium.be tafeltennistafel.technetium.be www.ligfiets.net